Time;durP1;ratioP1;P1;durP2;ratioP2;P2;SDS_P1;SDS_P2;PMS_P1;PMS_P2;Temp;Humidity;BMP_temperature;BMP_pressure;BME280_temperature;BME280_humidity;BME280_pressure;Samples;Min_cycle;Max_cycle;Signal;HPM_P1;HPM_P2
2022/01/07 00:00:13;;;;;;;20.17;6.90;;;4.30;99.90;;;;;;5033890;28;20087;-70
2022/01/07 00:02:39;;;;;;;9.70;4.80;;;4.30;99.90;;;;;;5033777;28;20581;-70
2022/01/07 00:05:06;;;;;;;11.70;5.60;;;4.30;99.90;;;;;;5034232;28;20040;-71
2022/01/07 00:07:31;;;;;;;18.90;6.90;;;4.20;99.90;;;;;;5033931;28;20558;-70
2022/01/07 00:09:57;;;;;;;12.60;5.68;;;4.20;99.90;;;;;;5034030;28;20108;-71
2022/01/07 00:12:23;;;;;;;12.38;6.32;;;4.20;99.90;;;;;;5034152;28;20406;-71
2022/01/07 00:14:49;;;;;;;14.43;6.13;;;4.20;99.90;;;;;;5033969;28;20080;-71
2022/01/07 00:17:16;;;;;;;13.88;5.70;;;4.20;99.90;;;;;;5033985;28;20155;-72
2022/01/07 00:19:42;;;;;;;13.70;5.75;;;4.20;99.90;;;;;;5034024;28;20021;-71
2022/01/07 00:22:08;;;;;;;11.07;4.95;;;4.20;99.90;;;;;;5034066;28;20139;-70
2022/01/07 00:24:33;;;;;;;21.75;7.30;;;4.20;99.90;;;;;;5033891;28;20029;-72
2022/01/07 00:26:59;;;;;;;12.82;5.35;;;4.20;99.90;;;;;;5033791;28;20033;-71
2022/01/07 00:29:24;;;;;;;11.85;4.90;;;4.30;99.90;;;;;;5034024;28;20032;-71
2022/01/07 00:31:50;;;;;;;12.68;6.13;;;4.20;99.90;;;;;;5033461;28;20601;-71
2022/01/07 00:34:15;;;;;;;16.50;5.57;;;4.30;99.90;;;;;;5033734;28;20026;-71
2022/01/07 00:36:41;;;;;;;18.88;6.57;;;4.30;99.90;;;;;;5033623;28;20057;-71
2022/01/07 00:39:07;;;;;;;14.32;5.72;;;4.30;99.90;;;;;;5033608;28;20021;-72
2022/01/07 00:41:32;;;;;;;11.57;4.53;;;4.30;99.90;;;;;;5033804;28;20026;-72
2022/01/07 00:43:58;;;;;;;16.58;6.00;;;4.30;99.90;;;;;;5033424;28;20076;-72
2022/01/07 00:46:23;;;;;;;13.10;5.63;;;4.30;99.90;;;;;;5033161;28;20446;-72
2022/01/07 00:48:49;;;;;;;16.10;6.60;;;4.30;99.90;;;;;;5033188;28;20048;-70
2022/01/07 00:51:15;;;;;;;16.10;6.03;;;4.30;99.90;;;;;;5033148;28;20029;-69
2022/01/07 00:53:41;;;;;;;19.88;7.28;;;4.30;99.90;;;;;;5033328;28;20075;-70
2022/01/07 00:56:07;;;;;;;14.00;6.00;;;4.30;99.90;;;;;;5033403;28;20040;-70
2022/01/07 00:58:32;;;;;;;12.13;5.93;;;4.30;99.90;;;;;;5033330;28;20410;-70
2022/01/07 01:00:58;;;;;;;17.23;5.78;;;4.30;99.90;;;;;;5032502;28;20029;-70
2022/01/07 01:03:23;;;;;;;15.63;5.97;;;4.30;99.90;;;;;;5033159;28;20491;-70
2022/01/07 01:05:49;;;;;;;10.93;4.13;;;4.30;99.90;;;;;;5032879;28;20079;-70
2022/01/07 01:08:15;;;;;;;14.57;5.88;;;4.30;99.90;;;;;;5032897;28;20458;-71
2022/01/07 01:10:41;;;;;;;17.02;6.53;;;4.30;99.90;;;;;;5032827;28;20026;-71
2022/01/07 01:13:07;;;;;;;10.00;5.30;;;4.30;99.90;;;;;;5032790;28;20052;-70
2022/01/07 01:15:32;;;;;;;12.05;5.90;;;4.40;99.90;;;;;;5032520;28;20029;-70
2022/01/07 01:17:59;;;;;;;16.23;6.05;;;4.40;99.90;;;;;;5032724;28;20026;-70
2022/01/07 01:20:26;;;;;;;12.57;5.15;;;4.40;99.90;;;;;;5032677;28;20116;-68
2022/01/07 01:22:52;;;;;;;17.27;6.30;;;4.40;99.90;;;;;;5032381;28;20029;-68
2022/01/07 01:25:18;;;;;;;13.15;6.05;;;4.40;99.90;;;;;;5032832;28;20033;-70
2022/01/07 01:27:44;;;;;;;13.70;5.05;;;4.50;99.90;;;;;;5032488;28;20057;-67
2022/01/07 01:30:12;;;;;;;15.82;6.25;;;4.50;99.90;;;;;;5032610;28;20108;-68
2022/01/07 01:32:38;;;;;;;14.18;4.47;;;4.60;99.90;;;;;;5032356;28;20110;-70
2022/01/07 01:35:05;;;;;;;12.23;5.45;;;4.60;99.90;;;;;;5032603;28;20464;-68
2022/01/07 01:37:31;;;;;;;16.48;6.15;;;4.60;99.90;;;;;;5032410;28;20436;-69
2022/01/07 01:39:58;;;;;;;15.77;5.82;;;4.60;99.90;;;;;;5032466;28;20064;-70
2022/01/07 01:42:24;;;;;;;11.95;4.50;;;4.70;99.90;;;;;;5032478;28;20025;-69
2022/01/07 01:44:50;;;;;;;13.13;5.70;;;4.70;99.90;;;;;;5032276;28;20037;-69
2022/01/07 01:47:15;;;;;;;15.23;6.40;;;4.70;99.90;;;;;;5032436;28;20036;-71
2022/01/07 01:49:41;;;;;;;10.95;5.63;;;4.70;99.90;;;;;;5032322;28;20033;-69
2022/01/07 01:52:07;;;;;;;15.52;6.72;;;4.70;99.90;;;;;;5032309;28;20491;-71
2022/01/07 01:54:32;;;;;;;13.25;6.25;;;4.70;99.90;;;;;;5032303;28;20438;-71
2022/01/07 01:56:58;;;;;;;14.90;6.53;;;4.80;99.90;;;;;;5032205;28;20033;-70
2022/01/07 01:59:26;;;;;;;9.45;5.13;;;4.80;99.90;;;;;;5032366;28;20390;-71
2022/01/07 02:01:52;;;;;;;13.10;6.35;;;4.80;99.90;;;;;;5032346;28;20079;-69
2022/01/07 02:04:18;;;;;;;15.70;6.65;;;4.80;99.90;;;;;;5032269;28;20037;-68
2022/01/07 02:06:43;;;;;;;13.80;6.28;;;4.80;99.90;;;;;;5032616;28;20026;-71
2022/01/07 02:09:09;;;;;;;15.15;5.88;;;4.80;99.90;;;;;;5032202;28;20029;-71
2022/01/07 02:11:35;;;;;;;12.30;5.70;;;4.80;99.90;;;;;;5030630;28;20111;-70
2022/01/07 02:14:00;;;;;;;13.35;5.53;;;4.80;99.90;;;;;;5031721;28;20060;-70
2022/01/07 02:16:27;;;;;;;17.70;7.25;;;4.80;99.90;;;;;;5032175;28;20436;-70
2022/01/07 02:18:53;;;;;;;11.90;6.50;;;4.80;99.90;;;;;;5033546;28;20116;-70
2022/01/07 02:21:19;;;;;;;12.75;5.65;;;4.80;99.90;;;;;;5034354;28;20036;-67
2022/01/07 02:23:45;;;;;;;11.10;5.30;;;4.80;99.90;;;;;;5036124;28;20029;-69
2022/01/07 02:26:12;;;;;;;15.57;6.65;;;4.80;99.90;;;;;;5034388;28;20029;-70
2022/01/07 02:28:40;;;;;;;10.70;5.80;;;4.80;99.90;;;;;;5035899;28;20034;-71
2022/01/07 02:31:06;;;;;;;10.80;4.85;;;4.80;99.90;;;;;;5034576;28;20029;-69
2022/01/07 02:33:31;;;;;;;10.38;5.22;;;4.80;99.90;;;;;;5035643;28;20501;-70
2022/01/07 02:35:57;;;;;;;14.98;6.47;;;4.80;99.90;;;;;;5035614;28;20101;-70
2022/01/07 02:38:23;;;;;;;15.73;7.22;;;4.80;99.90;;;;;;5034290;28;20101;-69
2022/01/07 02:40:49;;;;;;;18.20;7.20;;;4.80;99.90;;;;;;5035705;28;20041;-69
2022/01/07 02:43:14;;;;;;;9.85;4.63;;;4.90;99.90;;;;;;5035517;28;20033;-71
2022/01/07 02:45:40;;;;;;;16.05;7.18;;;4.90;99.90;;;;;;5035586;28;20026;-68
2022/01/07 02:48:06;;;;;;;18.08;8.40;;;4.90;99.90;;;;;;5034091;28;20053;-69
2022/01/07 02:50:35;;;;;;;15.05;5.55;;;5.00;99.90;;;;;;5035370;28;20026;-69
2022/01/07 02:53:02;;;;;;;12.23;6.38;;;5.00;99.90;;;;;;5035212;28;20032;-69
2022/01/07 02:55:28;;;;;;;16.45;7.72;;;5.00;99.90;;;;;;5035435;28;20088;-70
2022/01/07 02:57:54;;;;;;;9.27;5.53;;;5.00;99.90;;;;;;5035495;28;20034;-71
2022/01/07 03:00:21;;;;;;;17.95;7.40;;;5.00;99.90;;;;;;5035307;28;20033;-70
2022/01/07 03:02:49;;;;;;;18.83;7.93;;;5.00;99.90;;;;;;5035223;28;20061;-70
2022/01/07 03:05:15;;;;;;;20.25;8.05;;;5.00;99.90;;;;;;5033291;28;20029;-71
2022/01/07 03:07:41;;;;;;;16.45;7.60;;;5.10;99.90;;;;;;5031956;28;20033;-69
2022/01/07 03:10:09;;;;;;;15.63;7.32;;;5.10;99.90;;;;;;5024471;28;20364;-69
2022/01/07 03:12:36;;;;;;;14.57;5.32;;;5.10;99.90;;;;;;5016103;28;20046;-69
2022/01/07 03:15:04;;;;;;;17.63;7.93;;;5.10;99.90;;;;;;5018463;28;20128;-70
2022/01/07 03:17:30;;;;;;;14.60;7.10;;;5.10;99.90;;;;;;5025749;28;20057;-70
2022/01/07 03:19:55;;;;;;;12.88;7.35;;;5.10;99.90;;;;;;5017033;28;20053;-70
2022/01/07 03:22:21;;;;;;;13.07;6.95;;;5.20;99.90;;;;;;5018833;28;20037;-70
2022/01/07 03:24:46;;;;;;;14.68;7.38;;;5.20;99.90;;;;;;5015225;28;20033;-69
2022/01/07 03:27:12;;;;;;;14.13;7.50;;;5.10;99.90;;;;;;5028394;28;20022;-69
2022/01/07 03:29:37;;;;;;;19.38;8.90;;;5.10;99.90;;;;;;5013840;28;20435;-70
2022/01/07 03:32:03;;;;;;;14.43;7.57;;;5.20;99.90;;;;;;5020250;28;20041;-70
2022/01/07 03:34:29;;;;;;;15.77;8.55;;;5.20;99.90;;;;;;5030749;28;20025;-69
2022/01/07 03:36:55;;;;;;;12.82;7.05;;;5.20;99.90;;;;;;5029230;28;20026;-70
2022/01/07 03:39:20;;;;;;;19.15;10.02;;;5.20;99.90;;;;;;5014599;28;20460;-71
2022/01/07 03:41:46;;;;;;;17.98;9.18;;;5.20;99.90;;;;;;5020876;28;20064;-68
2022/01/07 03:44:11;;;;;;;14.25;6.88;;;5.20;99.90;;;;;;5014438;28;20447;-69
2022/01/07 03:46:37;;;;;;;22.83;10.30;;;5.30;99.90;;;;;;5028484;28;20050;-70
2022/01/07 03:49:03;;;;;;;14.95;7.45;;;5.30;99.90;;;;;;5014032;28;20026;-69
2022/01/07 03:51:29;;;;;;;13.70;7.88;;;5.20;99.90;;;;;;5020110;28;20037;-69
2022/01/07 03:53:54;;;;;;;18.48;8.27;;;5.30;99.90;;;;;;5013961;28;20091;-70
2022/01/07 03:56:20;;;;;;;15.43;7.22;;;5.30;99.90;;;;;;5026315;28;20030;-70
2022/01/07 03:58:47;;;;;;;18.08;7.95;;;5.30;99.90;;;;;;5016319;28;20029;-70
2022/01/07 04:01:13;;;;;;;22.98;9.30;;;5.30;99.90;;;;;;5020126;28;20683;-69
2022/01/07 04:03:39;;;;;;;23.95;9.15;;;5.40;99.90;;;;;;5014094;28;20105;-70
2022/01/07 04:06:05;;;;;;;14.82;8.23;;;5.40;99.90;;;;;;5023889;28;20160;-69
2022/01/07 04:08:30;;;;;;;19.63;8.70;;;5.40;99.90;;;;;;5017529;28;20487;-69
2022/01/07 04:10:56;;;;;;;16.45;8.45;;;5.40;99.90;;;;;;5020052;28;20049;-71
2022/01/07 04:13:22;;;;;;;14.63;6.93;;;5.40;99.90;;;;;;5018343;28;20033;-69
2022/01/07 04:15:47;;;;;;;15.82;8.60;;;5.50;99.90;;;;;;5031279;28;20033;-68
2022/01/07 04:18:13;;;;;;;16.98;7.43;;;5.50;99.90;;;;;;5021488;28;20385;-70
2022/01/07 04:20:39;;;;;;;15.70;8.20;;;5.50;99.90;;;;;;5018314;28;20063;-69
2022/01/07 04:23:06;;;;;;;17.92;8.55;;;5.40;99.90;;;;;;5014608;28;20033;-70
2022/01/07 04:25:32;;;;;;;15.02;6.60;;;5.50;99.90;;;;;;5017367;28;20494;-69
2022/01/07 04:28:04;;;;;;;20.55;9.52;;;5.50;99.90;;;;;;5024113;28;20104;-70
2022/01/07 04:30:32;;;;;;;;;;;5.50;99.90;;;;;;5017050;28;20030;-69
2022/01/07 04:32:59;;;;;;;17.42;8.88;;;5.50;99.90;;;;;;5015777;28;19967;-70
2022/01/07 04:35:25;;;;;;;16.17;8.45;;;5.50;99.90;;;;;;5015480;28;20053;-69
2022/01/07 04:37:52;;;;;;;18.50;9.57;;;5.60;99.90;;;;;;5025578;28;20026;-68
2022/01/07 04:40:19;;;;;;;10.95;4.97;;;5.60;99.90;;;;;;5013121;28;20022;-69
2022/01/07 04:42:45;;;;;;;11.23;5.97;;;5.60;99.90;;;;;;5032538;28;20029;-69
2022/01/07 04:45:12;;;;;;;19.17;8.55;;;5.60;99.90;;;;;;5014727;28;20427;-71
2022/01/07 04:47:39;;;;;;;17.58;9.23;;;5.60;99.90;;;;;;5013371;28;20030;-70
2022/01/07 04:50:08;;;;;;;15.38;6.97;;;5.60;99.90;;;;;;5013382;28;20022;-70
2022/01/07 04:52:33;;;;;;;15.68;8.43;;;5.60;99.90;;;;;;5019052;28;20049;-71
2022/01/07 04:54:59;;;;;;;20.45;9.00;;;5.60;99.90;;;;;;5013187;28;20040;-70
2022/01/07 04:57:25;;;;;;;19.17;8.05;;;5.60;99.90;;;;;;5027344;28;20092;-69
2022/01/07 04:59:50;;;;;;;18.60;7.45;;;5.60;99.90;;;;;;5012755;28;20065;-71
2022/01/07 05:02:19;;;;;;;18.55;8.98;;;5.60;99.90;;;;;;5019636;28;20120;-70
2022/01/07 05:04:45;;;;;;;15.85;8.05;;;5.70;99.90;;;;;;5012598;28;20025;-69
2022/01/07 05:07:11;;;;;;;18.35;7.63;;;5.60;99.90;;;;;;5027652;28;20125;-70
2022/01/07 05:09:36;;;;;;;12.88;6.32;;;5.60;99.90;;;;;;5012963;28;20438;-70
2022/01/07 05:12:02;;;;;;;18.30;7.72;;;5.50;99.90;;;;;;5018808;28;20087;-69
2022/01/07 05:14:28;;;;;;;19.58;9.25;;;5.50;99.90;;;;;;5012686;28;20084;-70
2022/01/07 05:16:54;;;;;;;19.50;9.05;;;5.50;99.90;;;;;;5024838;28;20471;-70
2022/01/07 05:19:19;;;;;;;17.67;8.77;;;5.50;99.90;;;;;;5014637;28;20030;-71
2022/01/07 05:21:45;;;;;;;17.60;8.55;;;5.50;99.90;;;;;;5018687;28;20045;-69
2022/01/07 05:24:10;;;;;;;17.90;8.38;;;5.50;99.90;;;;;;5013071;28;20485;-70
2022/01/07 05:26:36;;;;;;;18.95;8.50;;;5.50;99.90;;;;;;5021857;28;20530;-70
2022/01/07 05:29:02;;;;;;;20.52;8.50;;;5.50;99.90;;;;;;5017734;28;20037;-71
2022/01/07 05:31:28;;;;;;;16.92;7.35;;;5.50;99.90;;;;;;5018418;28;20091;-69
2022/01/07 05:33:55;;;;;;;19.60;9.20;;;5.50;99.90;;;;;;5012388;28;20030;-70
2022/01/07 05:36:21;;;;;;;18.73;9.15;;;5.60;99.90;;;;;;5019115;28;20033;-71
2022/01/07 05:38:48;;;;;;;15.52;7.10;;;5.60;99.90;;;;;;5019977;28;20422;-70
2022/01/07 05:41:14;;;;;;;18.10;7.82;;;5.70;99.90;;;;;;5018110;28;20025;-71
2022/01/07 05:43:40;;;;;;;21.63;8.13;;;5.80;99.90;;;;;;5011722;28;20084;-71
2022/01/07 05:46:10;;;;;;;19.70;8.25;;;5.80;99.90;;;;;;5016521;28;20022;-68
2022/01/07 05:48:36;;;;;;;20.25;9.50;;;5.90;99.90;;;;;;5022225;28;20892;-69
2022/01/07 05:51:01;;;;;;;25.23;10.10;;;5.90;99.90;;;;;;5015415;28;20053;-68
2022/01/07 05:53:27;;;;;;;25.23;9.23;;;5.90;99.90;;;;;;5014419;28;20042;-71
2022/01/07 05:55:52;;;;;;;22.52;9.27;;;5.90;99.90;;;;;;5018176;28;20018;-70
2022/01/07 05:58:18;;;;;;;23.48;9.48;;;6.00;99.90;;;;;;5029276;28;20087;-70
2022/01/07 06:00:43;;;;;;;25.15;8.68;;;6.00;99.90;;;;;;5016370;28;20101;-69
2022/01/07 06:03:09;;;;;;;26.20;8.93;;;6.10;99.90;;;;;;5022151;28;20037;-69
2022/01/07 06:05:34;;;;;;;24.05;7.38;;;6.10;99.90;;;;;;5015037;28;20036;-71
2022/01/07 06:08:00;;;;;;;25.10;8.20;;;6.10;99.90;;;;;;5030869;28;20057;-69
2022/01/07 06:10:26;;;;;;;28.10;8.40;;;6.10;99.90;;;;;;5016854;28;20042;-72
2022/01/07 06:12:51;;;;;;;25.67;7.80;;;6.20;99.90;;;;;;5022406;28;20040;-69
2022/01/07 06:15:17;;;;;;;25.13;8.13;;;6.20;99.90;;;;;;5016261;28;20112;-69
2022/01/07 06:17:42;;;;;;;25.08;9.38;;;6.20;99.90;;;;;;5030460;28;20041;-69
2022/01/07 06:20:09;;;;;;;28.48;9.32;;;6.30;99.90;;;;;;5016258;28;20026;-68
2022/01/07 06:22:35;;;;;;;23.05;7.38;;;6.30;99.90;;;;;;5022403;28;20076;-68
2022/01/07 06:25:01;;;;;;;32.50;8.60;;;6.40;99.90;;;;;;5016372;28;20030;-69
2022/01/07 06:27:27;;;;;;;27.05;7.15;;;6.40;99.90;;;;;;5027648;28;20116;-68
2022/01/07 06:29:53;;;;;;;24.15;5.68;;;6.40;99.90;;;;;;5026210;28;20589;-68
2022/01/07 06:32:18;;;;;;;20.42;5.40;;;6.50;99.90;;;;;;5021800;28;20037;-69
2022/01/07 06:34:44;;;;;;;21.20;7.40;;;6.50;99.90;;;;;;5016025;28;20103;-70
2022/01/07 06:37:12;;;;;;;27.52;9.35;;;6.60;99.90;;;;;;5024601;28;20033;-69
2022/01/07 06:39:37;;;;;;;22.13;8.35;;;6.70;99.90;;;;;;5019729;28;20029;-68
2022/01/07 06:42:03;;;;;;;19.85;7.68;;;6.70;99.90;;;;;;5021791;28;20092;-70
2022/01/07 06:44:29;;;;;;;30.42;9.20;;;6.70;99.90;;;;;;5015448;28;20030;-69
2022/01/07 06:46:54;;;;;;;33.13;10.35;;;6.70;99.90;;;;;;5023011;28;20040;-68
2022/01/07 06:49:20;;;;;;;27.63;8.15;;;6.70;99.90;;;;;;5022637;28;20029;-69
2022/01/07 06:51:46;;;;;;;21.88;9.38;;;6.70;99.90;;;;;;5021292;28;20477;-69
2022/01/07 06:54:11;;;;;;;23.48;8.75;;;6.70;99.90;;;;;;5015660;28;20025;-68
2022/01/07 06:56:42;;;;;;;25.17;10.23;;;6.70;99.90;;;;;;5018776;28;20036;-71
2022/01/07 06:59:08;;;;;;;32.00;10.77;;;6.80;99.90;;;;;;5024272;28;20056;-68
2022/01/07 07:01:34;;;;;;;31.90;10.98;;;6.80;99.90;;;;;;5018866;28;20021;-68
2022/01/07 07:04:00;;;;;;;28.25;10.82;;;6.80;99.90;;;;;;5017445;28;20537;-69
2022/01/07 07:06:25;;;;;;;30.45;10.77;;;6.80;99.90;;;;;;5017486;28;20034;-69
2022/01/07 07:08:51;;;;;;;24.67;8.50;;;6.70;99.90;;;;;;5027317;28;20379;-70
2022/01/07 07:11:17;;;;;;;24.25;9.32;;;6.70;99.90;;;;;;5016111;28;20495;-69
2022/01/07 07:13:42;;;;;;;26.33;8.73;;;6.70;99.90;;;;;;5019891;28;20127;-68
2022/01/07 07:16:08;;;;;;;23.25;6.97;;;6.60;99.90;;;;;;5014762;28;20030;-69
2022/01/07 07:18:33;;;;;;;27.92;9.95;;;6.70;99.90;;;;;;5029435;28;20407;-69
2022/01/07 07:20:59;;;;;;;23.90;8.80;;;6.60;99.90;;;;;;5013058;28;20482;-69
2022/01/07 07:23:25;;;;;;;24.25;9.38;;;6.70;99.90;;;;;;5021417;28;20028;-69
2022/01/07 07:25:51;;;;;;;30.90;10.48;;;6.70;99.90;;;;;;5014988;28;20104;-69
2022/01/07 07:28:18;;;;;;;22.02;8.80;;;6.60;99.90;;;;;;5029220;28;20114;-69
2022/01/07 07:30:44;;;;;;;21.30;8.43;;;6.60;99.90;;;;;;5016508;28;20109;-69
2022/01/07 07:33:43;;;;;;;25.50;10.23;;;6.50;99.90;;;;;;5020813;28;20427;-69
2022/01/07 07:38:45;;;;;;;23.55;7.97;;;6.40;99.90;;;;;;5028943;28;20048;-69
2022/01/07 07:41:11;;;;;;;17.63;6.35;;;6.40;99.90;;;;;;5014735;28;20152;-69
2022/01/07 07:43:38;;;;;;;16.77;7.25;;;6.40;99.90;;;;;;5018954;28;20084;-71
2022/01/07 07:46:04;;;;;;;16.52;6.93;;;6.30;99.90;;;;;;5014296;28;20387;-71
2022/01/07 07:48:31;;;;;;;23.38;9.57;;;6.20;99.90;;;;;;5028709;28;20144;-71
2022/01/07 07:50:57;;;;;;;24.63;10.38;;;6.20;99.90;;;;;;5014728;28;20030;-70
2022/01/07 07:53:23;;;;;;;18.45;9.02;;;6.10;99.90;;;;;;5020420;28;20103;-70
2022/01/07 07:55:53;;;;;;;21.40;8.63;;;6.10;99.90;;;;;;5014394;28;20033;-69
2022/01/07 07:58:22;;;;;;;27.42;10.77;;;6.00;99.90;;;;;;5026203;28;20063;-69
2022/01/07 08:00:49;;;;;;;22.13;9.63;;;6.00;99.90;;;;;;5014728;28;20022;-70
2022/01/07 08:03:14;;;;;;;20.92;8.77;;;6.00;99.90;;;;;;5020023;28;20033;-70
2022/01/07 08:05:40;;;;;;;19.50;8.80;;;6.00;99.90;;;;;;5014380;28;20029;-69
2022/01/07 08:08:06;;;;;;;19.45;7.72;;;6.00;99.90;;;;;;5014534;28;20448;-69
2022/01/07 08:10:32;;;;;;;23.65;7.28;;;6.10;99.90;;;;;;5014333;28;20112;-68
2022/01/07 08:18:22;;;;;;;18.40;5.97;;;6.20;99.90;;;;;;5013552;28;20028;-70
2022/01/07 08:20:48;;;;;;;20.40;5.53;;;6.20;99.90;;;;;;5013840;28;20026;-70
2022/01/07 08:23:14;;;;;;;18.13;5.10;;;6.30;99.90;;;;;;5011843;28;20395;-68
2022/01/07 08:25:39;;;;;;;14.57;4.88;;;6.30;99.90;;;;;;5012954;28;20137;-70
2022/01/07 08:28:06;;;;;;;13.85;3.58;;;6.30;99.90;;;;;;5017529;28;20076;-69
2022/01/07 08:30:37;;;;;;;17.50;4.57;;;6.40;99.90;;;;;;5031052;28;20053;-68
2022/01/07 08:35:49;;;;;;;14.45;3.60;;;6.40;99.90;;;;;;5033436;28;20037;-69
2022/01/07 08:38:14;;;;;;;15.30;3.90;;;6.40;99.90;;;;;;5033627;28;20025;-68
2022/01/07 08:40:40;;;;;;;20.23;4.63;;;6.40;99.90;;;;;;5033530;28;20033;-69
2022/01/07 08:43:06;;;;;;;22.08;4.68;;;6.40;99.90;;;;;;5033679;28;20025;-70
2022/01/07 08:45:32;;;;;;;18.75;3.65;;;6.50;99.90;;;;;;5031949;28;20029;-68
2022/01/07 08:47:59;;;;;;;16.58;4.15;;;6.50;99.90;;;;;;5033216;28;20100;-70
2022/01/07 08:50:25;;;;;;;20.27;3.10;;;6.60;99.90;;;;;;5033305;28;20022;-68
2022/01/07 08:52:52;;;;;;;15.57;2.85;;;6.60;99.90;;;;;;5033076;28;20033;-70
2022/01/07 08:55:18;;;;;;;14.63;2.38;;;6.60;99.90;;;;;;5033255;28;20044;-70
2022/01/07 08:57:44;;;;;;;12.30;2.33;;;6.60;99.90;;;;;;5031771;28;20069;-70
2022/01/07 09:00:11;;;;;;;13.65;2.00;;;6.60;99.90;;;;;;5031426;28;20040;-69
2022/01/07 09:02:36;;;;;;;18.35;2.47;;;6.70;99.90;;;;;;5033016;28;20029;-70
2022/01/07 09:05:02;;;;;;;15.10;2.63;;;6.70;99.90;;;;;;5033156;28;20018;-71
2022/01/07 09:07:27;;;;;;;13.07;2.15;;;6.70;99.90;;;;;;5033139;28;20386;-70
2022/01/07 09:09:53;;;;;;;13.43;2.58;;;6.80;99.90;;;;;;5033298;28;20041;-70
2022/01/07 09:12:19;;;;;;;11.60;1.67;;;6.80;99.90;;;;;;5032710;28;20040;-70
2022/01/07 09:14:45;;;;;;;18.55;3.58;;;6.80;99.90;;;;;;5032807;28;20499;-71
2022/01/07 09:17:11;;;;;;;10.98;1.83;;;6.90;99.90;;;;;;5032649;28;20092;-69
2022/01/07 09:19:37;;;;;;;8.75;1.85;;;6.80;99.90;;;;;;5032606;28;20462;-70
2022/01/07 09:22:03;;;;;;;18.10;2.25;;;6.90;99.90;;;;;;5032484;28;20466;-70
2022/01/07 09:24:29;;;;;;;13.05;2.22;;;6.90;99.90;;;;;;5031424;28;20033;-70
2022/01/07 09:26:56;;;;;;;19.05;3.10;;;7.00;99.90;;;;;;5032383;28;20382;-71
2022/01/07 09:29:26;;;;;;;21.98;4.07;;;7.00;99.90;;;;;;5032274;28;20025;-70
2022/01/07 09:31:53;;;;;;;14.40;1.77;;;7.10;99.90;;;;;;5032763;28;20024;-70
2022/01/07 09:34:19;;;;;;;11.68;2.40;;;7.20;99.90;;;;;;5032711;28;20033;-69
2022/01/07 09:36:45;;;;;;;15.90;1.98;;;7.20;99.90;;;;;;5031171;28;20040;-68
2022/01/07 09:39:10;;;;;;;16.98;2.83;;;7.30;99.90;;;;;;5032358;28;20025;-70
2022/01/07 09:41:36;;;;;;;12.30;2.50;;;7.30;99.90;;;;;;5032831;28;20033;-70
2022/01/07 09:44:02;;;;;;;16.83;2.15;;;7.30;99.90;;;;;;5032379;28;20056;-71
2022/01/07 09:46:28;;;;;;;14.23;2.38;;;7.30;99.90;;;;;;5030884;28;20037;-69
2022/01/07 09:48:54;;;;;;;16.80;2.90;;;7.30;99.90;;;;;;5032434;28;20053;-70
2022/01/07 09:51:22;;;;;;;17.33;2.30;;;7.40;99.90;;;;;;5032041;28;20079;-71
2022/01/07 09:53:48;;;;;;;12.50;2.15;;;7.50;99.90;;;;;;5032103;28;20037;-70
2022/01/07 09:56:14;;;;;;;13.10;2.22;;;7.50;99.90;;;;;;5030537;28;20486;-70
2022/01/07 09:58:39;;;;;;;11.60;1.90;;;7.60;99.90;;;;;;5032025;28;20112;-69
2022/01/07 10:01:14;;;;;;;11.32;2.50;;;7.70;99.90;;;;;;5032194;28;20026;-70
2022/01/07 10:03:41;;;;;;;16.10;3.08;;;8.00;99.90;;;;;;5032340;28;20425;-71
2022/01/07 10:06:24;;;;;;;11.43;3.00;;;8.30;99.90;;;;;;5032062;28;20112;-70
2022/01/07 10:09:06;;;;;;;12.55;2.08;;;8.40;99.90;;;;;;5032136;28;20033;-71
2022/01/07 10:11:31;;;;;;;19.05;2.40;;;8.40;99.90;;;;;;5032349;28;20057;-69
2022/01/07 10:14:22;;;;;;;14.57;2.00;;;8.40;99.90;;;;;;5031642;28;20096;-70
2022/01/07 10:16:54;;;;;;;12.38;2.90;;;8.30;99.90;;;;;;5032131;28;20021;-70
2022/01/07 10:19:43;;;;;;;7.22;1.33;;;8.20;99.90;;;;;;5031920;28;20053;-69
2022/01/07 10:22:11;;;;;;;7.82;1.58;;;8.10;99.90;;;;;;5031722;28;20030;-71
2022/01/07 10:24:59;;;;;;;5.88;1.23;;;8.00;99.90;;;;;;5031588;28;20109;-69
2022/01/07 10:27:37;;;;;;;11.70;1.42;;;7.80;99.90;;;;;;5031899;28;20095;-70
2022/01/07 10:30:15;;;;;;;7.30;2.05;;;7.80;99.90;;;;;;5032108;28;20057;-69
2022/01/07 10:32:42;;;;;;;9.13;1.30;;;7.70;99.90;;;;;;5032157;28;20037;-71
2022/01/07 10:35:19;;;;;;;12.07;1.60;;;7.70;99.90;;;;;;5031600;28;20024;-69
2022/01/07 10:38:02;;;;;;;9.45;1.35;;;7.70;99.90;;;;;;5027322;28;20025;-70
2022/01/07 10:40:34;;;;;;;10.73;2.08;;;7.70;99.90;;;;;;5013836;28;20026;-69
2022/01/07 10:43:24;;;;;;;17.52;2.53;;;8.00;99.90;;;;;;5015578;28;20169;-70
2022/01/07 10:45:55;;;;;;;9.63;2.03;;;8.10;99.90;;;;;;5017893;28;20060;-71
2022/01/07 10:48:36;;;;;;;12.20;2.10;;;8.00;99.90;;;;;;5028118;28;20033;-69
2022/01/07 10:51:07;;;;;;;13.30;1.92;;;8.10;99.90;;;;;;5017917;28;20531;-71
2022/01/07 10:53:32;;;;;;;11.00;1.73;;;8.50;99.90;;;;;;5018630;28;20038;-71
2022/01/07 10:56:09;;;;;;;9.43;1.83;;;8.80;99.90;;;;;;5030285;28;20036;-70
2022/01/07 10:59:00;;;;;;;12.25;1.70;;;9.10;99.90;;;;;;5035553;28;20033;-69
2022/01/07 11:01:30;;;;;;;8.20;1.92;;;8.90;99.90;;;;;;5034230;28;20506;-70
2022/01/07 11:03:57;;;;;;;12.20;2.38;;;9.00;99.90;;;;;;5035573;28;20036;-69
2022/01/07 11:06:25;;;;;;;11.63;1.73;;;9.10;99.90;;;;;;5035398;28;20109;-68
2022/01/07 11:08:53;;;;;;;9.60;1.65;;;8.90;99.90;;;;;;5035340;28;20048;-70
2022/01/07 11:11:24;;;;;;;9.95;1.98;;;9.00;99.90;;;;;;5034912;28;20030;-69
2022/01/07 11:13:51;;;;;;;7.35;1.58;;;9.20;99.90;;;;;;5034878;28;20056;-70
2022/01/07 11:16:17;;;;;;;9.27;1.55;;;9.30;99.90;;;;;;5035365;28;20128;-70
2022/01/07 11:18:48;;;;;;;9.13;2.15;;;9.70;99.90;;;;;;5034953;28;20022;-70
2022/01/07 11:21:17;;;;;;;11.35;1.95;;;10.20;99.90;;;;;;5033595;28;20030;-70
2022/01/07 11:23:43;;;;;;;11.98;1.80;;;10.70;99.90;;;;;;5034694;28;20033;-70
2022/01/07 11:26:10;;;;;;;14.52;1.60;;;10.90;99.90;;;;;;5033662;28;20025;-70
2022/01/07 11:28:38;;;;;;;13.50;2.03;;;10.70;99.90;;;;;;5033333;28;20483;-69
2022/01/07 11:31:13;;;;;;;11.77;1.58;;;10.50;99.90;;;;;;5035036;28;20493;-69
2022/01/07 11:33:40;;;;;;;14.10;2.53;;;10.30;99.90;;;;;;5034487;28;20037;-70
2022/01/07 11:36:33;;;;;;;11.68;1.90;;;10.00;99.90;;;;;;5034562;28;20402;-72
2022/01/07 11:39:04;;;;;;;10.38;1.45;;;9.90;99.90;;;;;;5021978;28;20360;-72
2022/01/07 11:41:50;;;;;;;8.40;1.77;;;9.70;99.90;;;;;;5033778;28;20067;-69
2022/01/07 11:44:29;;;;;;;14.52;1.58;;;9.50;99.90;;;;;;5031689;28;20120;-69
2022/01/07 11:47:13;;;;;;;9.95;2.25;;;9.20;99.90;;;;;;5032348;28;20063;-71
2022/01/07 11:49:39;;;;;;;11.10;1.65;;;9.10;99.90;;;;;;5032274;28;20029;-71
2022/01/07 11:52:28;;;;;;;9.55;1.55;;;8.90;99.90;;;;;;5030766;28;20486;-73
2022/01/07 11:55:18;;;;;;;7.75;1.65;;;8.70;99.90;;;;;;5030966;28;20079;-70
2022/01/07 11:57:51;;;;;;;9.30;1.30;;;8.60;99.90;;;;;;5032733;28;20029;-68
2022/01/07 12:00:56;;;;;;;9.13;1.35;;;8.40;99.90;;;;;;5034475;28;20029;-70
2022/01/07 12:03:49;;;;;;;9.18;1.33;;;8.30;99.90;;;;;;5031840;28;20040;-70
2022/01/07 12:06:17;;;;;;;11.85;1.48;;;8.20;99.90;;;;;;5020052;28;20033;-71
2022/01/07 12:09:11;;;;;;;11.15;1.40;;;8.40;99.90;;;;;;5020173;28;20172;-71
2022/01/07 12:11:55;;;;;;;7.40;1.38;;;8.60;99.90;;;;;;5013675;28;20034;-71
2022/01/07 12:14:45;;;;;;;10.55;2.00;;;8.70;99.90;;;;;;5030059;28;20052;-71
2022/01/07 12:17:17;;;;;;;8.35;2.13;;;8.70;99.90;;;;;;5012694;28;20756;-70
2022/01/07 12:19:49;;;;;;;10.18;1.45;;;8.60;99.90;;;;;;5014268;28;20137;-69
2022/01/07 12:22:16;;;;;;;12.73;1.90;;;8.70;99.90;;;;;;5013047;28;20097;-70
2022/01/07 12:24:43;;;;;;;11.32;1.88;;;8.80;99.90;;;;;;5014071;28;20034;-69
2022/01/07 12:27:16;;;;;;;11.38;2.22;;;8.90;99.90;;;;;;5014337;28;20034;-70
2022/01/07 12:29:44;;;;;;;11.13;1.85;;;9.10;99.90;;;;;;5027968;28;20088;-69
2022/01/07 12:32:12;;;;;;;10.07;1.80;;;9.30;99.90;;;;;;5015915;28;20537;-71
2022/01/07 12:34:43;;;;;;;10.88;1.90;;;9.60;99.90;;;;;;5014208;28;20105;-71
2022/01/07 12:37:10;;;;;;;20.80;3.13;;;10.00;99.90;;;;;;5028906;28;20060;-72
2022/01/07 12:39:42;;;;;;;10.95;1.50;;;10.30;99.90;;;;;;5031751;28;20761;-69
2022/01/07 12:42:09;;;;;;;;;;;10.70;99.90;;;;;;5033955;28;20172;-71
2022/01/07 12:44:47;;;;;;;11.68;2.45;;;10.80;99.90;;;;;;5033263;28;19905;-70
2022/01/07 12:47:17;;;;;;;14.38;1.90;;;10.80;99.90;;;;;;5033186;28;20025;-70
2022/01/07 12:49:46;;;;;;;13.07;1.80;;;10.90;99.90;;;;;;5033222;28;20025;-70
2022/01/07 12:52:29;;;;;;;9.35;1.80;;;10.80;99.90;;;;;;5033238;28;20547;-70
2022/01/07 12:55:02;;;;;;;11.25;2.58;;;10.30;99.90;;;;;;5032813;28;20036;-70
2022/01/07 12:57:31;;;;;;;10.40;1.83;;;10.00;99.90;;;;;;5032833;28;20424;-73
2022/01/07 13:00:19;;;;;;;15.07;1.92;;;9.80;99.90;;;;;;5032002;28;20061;-70
2022/01/07 13:02:54;;;;;;;14.77;1.60;;;9.50;99.90;;;;;;5030680;28;20029;-69